sensor_id;sensor_type;location;lat;lon;timestamp;temperature;humidity
15341;DHT22;7770;52.158;5.372;2022-12-18T00:00:41;-3.70;99.90
15341;DHT22;7770;52.158;5.372;2022-12-18T00:03:28;-3.70;99.90
15341;DHT22;7770;52.158;5.372;2022-12-18T00:06:14;-3.70;99.90
15341;DHT22;7770;52.158;5.372;2022-12-18T00:09:02;-3.60;99.90
15341;DHT22;7770;52.158;5.372;2022-12-18T00:11:49;-3.50;99.90
15341;DHT22;7770;52.158;5.372;2022-12-18T00:14:35;-3.60;99.90
15341;DHT22;7770;52.158;5.372;2022-12-18T00:17:21;-3.70;99.90
15341;DHT22;7770;52.158;5.372;2022-12-18T00:20:07;-3.70;99.90
15341;DHT22;7770;52.158;5.372;2022-12-18T00:22:54;-3.70;99.90
15341;DHT22;7770;52.158;5.372;2022-12-18T00:25:40;-3.70;99.90
15341;DHT22;7770;52.158;5.372;2022-12-18T00:28:26;-3.70;99.90
15341;DHT22;7770;52.158;5.372;2022-12-18T00:31:15;-3.80;99.90
15341;DHT22;7770;52.158;5.372;2022-12-18T00:34:03;-3.70;99.90
15341;DHT22;7770;52.158;5.372;2022-12-18T00:36:49;-3.70;99.90
15341;DHT22;7770;52.158;5.372;2022-12-18T00:39:35;-3.70;99.90
15341;DHT22;7770;52.158;5.372;2022-12-18T00:42:21;-3.80;99.90
15341;DHT22;7770;52.158;5.372;2022-12-18T00:45:30;-3.90;99.90
15341;DHT22;7770;52.158;5.372;2022-12-18T00:48:16;-3.80;99.90
15341;DHT22;7770;52.158;5.372;2022-12-18T00:51:02;-3.90;99.90
15341;DHT22;7770;52.158;5.372;2022-12-18T00:53:48;-4.00;99.90
15341;DHT22;7770;52.158;5.372;2022-12-18T00:56:38;-4.00;99.90
15341;DHT22;7770;52.158;5.372;2022-12-18T00:59:24;-4.10;99.90
15341;DHT22;7770;52.158;5.372;2022-12-18T01:02:10;-4.10;99.90
15341;DHT22;7770;52.158;5.372;2022-12-18T01:04:58;-4.10;99.90
15341;DHT22;7770;52.158;5.372;2022-12-18T01:07:44;-4.20;99.90
15341;DHT22;7770;52.158;5.372;2022-12-18T01:10:30;-4.20;99.90
15341;DHT22;7770;52.158;5.372;2022-12-18T01:13:16;-4.20;99.90
15341;DHT22;7770;52.158;5.372;2022-12-18T01:16:02;-4.20;99.90
15341;DHT22;7770;52.158;5.372;2022-12-18T01:18:52;-4.20;99.90
15341;DHT22;7770;52.158;5.372;2022-12-18T01:21:39;-4.20;99.90
15341;DHT22;7770;52.158;5.372;2022-12-18T01:24:25;-4.20;99.90
15341;DHT22;7770;52.158;5.372;2022-12-18T01:27:11;-4.20;99.90
15341;DHT22;7770;52.158;5.372;2022-12-18T01:29:57;-4.10;99.90
15341;DHT22;7770;52.158;5.372;2022-12-18T01:32:43;-4.10;99.90
15341;DHT22;7770;52.158;5.372;2022-12-18T01:35:29;-4.10;99.90
15341;DHT22;7770;52.158;5.372;2022-12-18T01:38:15;-4.00;99.90
15341;DHT22;7770;52.158;5.372;2022-12-18T01:41:01;-4.00;99.90
15341;DHT22;7770;52.158;5.372;2022-12-18T01:43:56;-4.10;99.90
15341;DHT22;7770;52.158;5.372;2022-12-18T01:46:43;-4.10;99.90
15341;DHT22;7770;52.158;5.372;2022-12-18T01:49:29;-4.20;99.90
15341;DHT22;7770;52.158;5.372;2022-12-18T01:52:15;-4.20;99.90
15341;DHT22;7770;52.158;5.372;2022-12-18T01:55:04;-4.20;99.90
15341;DHT22;7770;52.158;5.372;2022-12-18T01:57:56;-4.20;99.90
15341;DHT22;7770;52.158;5.372;2022-12-18T02:00:43;-4.20;99.90
15341;DHT22;7770;52.158;5.372;2022-12-18T02:03:30;-4.20;99.90
15341;DHT22;7770;52.158;5.372;2022-12-18T02:06:21;-4.30;99.90
15341;DHT22;7770;52.158;5.372;2022-12-18T02:09:20;-4.40;99.90
15341;DHT22;7770;52.158;5.372;2022-12-18T02:12:18;-4.40;99.90
15341;DHT22;7770;52.158;5.372;2022-12-18T02:15:17;-4.40;99.90
15341;DHT22;7770;52.158;5.372;2022-12-18T02:18:24;-4.50;99.90
15341;DHT22;7770;52.158;5.372;2022-12-18T02:24:33;-4.50;99.90
15341;DHT22;7770;52.158;5.372;2022-12-18T02:27:32;-4.50;99.90
15341;DHT22;7770;52.158;5.372;2022-12-18T02:30:19;-4.50;99.90
15341;DHT22;7770;52.158;5.372;2022-12-18T02:33:07;-4.50;99.90
15341;DHT22;7770;52.158;5.372;2022-12-18T02:35:55;-4.50;99.90
15341;DHT22;7770;52.158;5.372;2022-12-18T02:38:43;-4.50;99.90
15341;DHT22;7770;52.158;5.372;2022-12-18T02:41:30;-4.50;99.90
15341;DHT22;7770;52.158;5.372;2022-12-18T02:44:16;-4.50;99.90
15341;DHT22;7770;52.158;5.372;2022-12-18T02:47:02;-4.50;99.90
15341;DHT22;7770;52.158;5.372;2022-12-18T02:50:07;-4.60;99.90
15341;DHT22;7770;52.158;5.372;2022-12-18T02:53:17;-4.60;99.90
15341;DHT22;7770;52.158;5.372;2022-12-18T02:59:03;-4.60;99.90
15341;DHT22;7770;52.158;5.372;2022-12-18T03:01:52;-4.60;99.90
15341;DHT22;7770;52.158;5.372;2022-12-18T03:04:47;-4.70;99.90
15341;DHT22;7770;52.158;5.372;2022-12-18T03:07:57;-4.70;99.90
15341;DHT22;7770;52.158;5.372;2022-12-18T03:11:03;-4.70;99.90
15341;DHT22;7770;52.158;5.372;2022-12-18T03:13:55;-4.70;99.90
15341;DHT22;7770;52.158;5.372;2022-12-18T03:16:44;-4.70;99.90
15341;DHT22;7770;52.158;5.372;2022-12-18T03:19:32;-4.70;99.90
15341;DHT22;7770;52.158;5.372;2022-12-18T03:22:19;-4.70;99.90
15341;DHT22;7770;52.158;5.372;2022-12-18T03:25:08;-4.80;99.90
15341;DHT22;7770;52.158;5.372;2022-12-18T03:27:58;-4.80;99.90
15341;DHT22;7770;52.158;5.372;2022-12-18T03:30:49;-4.80;99.90
15341;DHT22;7770;52.158;5.372;2022-12-18T03:36:32;-4.80;99.90
15341;DHT22;7770;52.158;5.372;2022-12-18T03:39:19;-4.80;99.90
15341;DHT22;7770;52.158;5.372;2022-12-18T03:42:26;-4.80;99.90
15341;DHT22;7770;52.158;5.372;2022-12-18T03:45:26;-4.80;99.90
15341;DHT22;7770;52.158;5.372;2022-12-18T03:48:28;-4.90;99.90
15341;DHT22;7770;52.158;5.372;2022-12-18T03:51:33;-4.90;99.90
15341;DHT22;7770;52.158;5.372;2022-12-18T03:54:22;-4.90;99.90
15341;DHT22;7770;52.158;5.372;2022-12-18T03:57:21;-4.90;99.90
15341;DHT22;7770;52.158;5.372;2022-12-18T04:00:11;-5.00;99.90
15341;DHT22;7770;52.158;5.372;2022-12-18T04:03:00;-5.00;99.90
15341;DHT22;7770;52.158;5.372;2022-12-18T04:05:50;-5.00;99.90
15341;DHT22;7770;52.158;5.372;2022-12-18T04:08:37;-5.00;99.90
15341;DHT22;7770;52.158;5.372;2022-12-18T04:11:24;-5.00;99.90
15341;DHT22;7770;52.158;5.372;2022-12-18T04:14:11;-5.00;99.90
15341;DHT22;7770;52.158;5.372;2022-12-18T04:16:57;-5.00;99.90
15341;DHT22;7770;52.158;5.372;2022-12-18T04:19:43;-5.00;99.90
15341;DHT22;7770;52.158;5.372;2022-12-18T04:22:29;-5.00;99.90
15341;DHT22;7770;52.158;5.372;2022-12-18T04:25:15;-5.10;99.90
15341;DHT22;7770;52.158;5.372;2022-12-18T04:28:01;-5.10;99.90
15341;DHT22;7770;52.158;5.372;2022-12-18T04:30:47;-5.10;99.90
15341;DHT22;7770;52.158;5.372;2022-12-18T04:33:33;-5.10;99.90
15341;DHT22;7770;52.158;5.372;2022-12-18T04:36:19;-5.10;99.90
15341;DHT22;7770;52.158;5.372;2022-12-18T04:39:05;-5.00;99.90
15341;DHT22;7770;52.158;5.372;2022-12-18T04:41:51;-5.00;99.90
15341;DHT22;7770;52.158;5.372;2022-12-18T04:44:37;-5.10;99.90
15341;DHT22;7770;52.158;5.372;2022-12-18T04:47:23;-5.10;99.90
15341;DHT22;7770;52.158;5.372;2022-12-18T04:50:09;-5.10;99.90
15341;DHT22;7770;52.158;5.372;2022-12-18T04:52:56;-5.10;99.90
15341;DHT22;7770;52.158;5.372;2022-12-18T04:55:42;-5.10;99.90
15341;DHT22;7770;52.158;5.372;2022-12-18T04:58:28;-5.10;99.90
15341;DHT22;7770;52.158;5.372;2022-12-18T05:01:16;-5.10;99.90
15341;DHT22;7770;52.158;5.372;2022-12-18T05:04:02;-5.10;99.90
15341;DHT22;7770;52.158;5.372;2022-12-18T05:06:49;-5.10;99.90
15341;DHT22;7770;52.158;5.372;2022-12-18T05:09:34;-5.10;99.90
15341;DHT22;7770;52.158;5.372;2022-12-18T05:12:20;-5.10;99.90
15341;DHT22;7770;52.158;5.372;2022-12-18T05:15:07;-5.10;99.90
15341;DHT22;7770;52.158;5.372;2022-12-18T05:17:53;-5.10;99.90
15341;DHT22;7770;52.158;5.372;2022-12-18T05:20:39;-5.10;99.90
15341;DHT22;7770;52.158;5.372;2022-12-18T05:23:25;-5.10;99.90
15341;DHT22;7770;52.158;5.372;2022-12-18T05:26:16;-5.10;99.90
15341;DHT22;7770;52.158;5.372;2022-12-18T05:29:03;-5.10;99.90
15341;DHT22;7770;52.158;5.372;2022-12-18T05:31:49;-5.10;99.90
15341;DHT22;7770;52.158;5.372;2022-12-18T05:34:35;-5.10;99.90
15341;DHT22;7770;52.158;5.372;2022-12-18T05:37:21;-5.10;99.90
15341;DHT22;7770;52.158;5.372;2022-12-18T05:40:07;-5.10;99.90
15341;DHT22;7770;52.158;5.372;2022-12-18T05:42:54;-5.10;99.90
15341;DHT22;7770;52.158;5.372;2022-12-18T05:45:40;-5.00;99.90
15341;DHT22;7770;52.158;5.372;2022-12-18T05:48:26;-5.00;99.90
15341;DHT22;7770;52.158;5.372;2022-12-18T05:51:17;-5.00;99.90
15341;DHT22;7770;52.158;5.372;2022-12-18T05:54:04;-5.00;99.90
15341;DHT22;7770;52.158;5.372;2022-12-18T05:56:50;-5.00;99.90
15341;DHT22;7770;52.158;5.372;2022-12-18T05:59:36;-5.00;99.90
15341;DHT22;7770;52.158;5.372;2022-12-18T06:02:22;-5.00;99.90
15341;DHT22;7770;52.158;5.372;2022-12-18T06:05:08;-5.00;99.90
15341;DHT22;7770;52.158;5.372;2022-12-18T06:07:54;-5.00;99.90
15341;DHT22;7770;52.158;5.372;2022-12-18T06:10:41;-5.00;99.90
15341;DHT22;7770;52.158;5.372;2022-12-18T06:13:27;-4.90;99.90
15341;DHT22;7770;52.158;5.372;2022-12-18T06:16:13;-5.00;99.90
15341;DHT22;7770;52.158;5.372;2022-12-18T06:19:00;-5.00;99.90
15341;DHT22;7770;52.158;5.372;2022-12-18T06:21:48;-5.00;99.90
15341;DHT22;7770;52.158;5.372;2022-12-18T06:24:34;-5.00;99.90
15341;DHT22;7770;52.158;5.372;2022-12-18T06:27:20;-5.10;99.90
15341;DHT22;7770;52.158;5.372;2022-12-18T06:30:07;-5.10;99.90
15341;DHT22;7770;52.158;5.372;2022-12-18T06:32:53;-5.20;99.90
15341;DHT22;7770;52.158;5.372;2022-12-18T06:35:40;-5.20;99.90
15341;DHT22;7770;52.158;5.372;2022-12-18T06:38:26;-5.20;99.90
15341;DHT22;7770;52.158;5.372;2022-12-18T06:41:15;-5.20;99.90
15341;DHT22;7770;52.158;5.372;2022-12-18T06:44:02;-5.20;99.90
15341;DHT22;7770;52.158;5.372;2022-12-18T06:46:48;-5.20;99.90
15341;DHT22;7770;52.158;5.372;2022-12-18T06:49:34;-5.20;99.90
15341;DHT22;7770;52.158;5.372;2022-12-18T06:52:20;-5.30;99.90
15341;DHT22;7770;52.158;5.372;2022-12-18T06:55:08;-5.30;99.90
15341;DHT22;7770;52.158;5.372;2022-12-18T06:57:54;-5.30;99.90
15341;DHT22;7770;52.158;5.372;2022-12-18T07:00:40;-5.30;99.90
15341;DHT22;7770;52.158;5.372;2022-12-18T07:03:26;-5.30;99.90
15341;DHT22;7770;52.158;5.372;2022-12-18T07:06:15;-5.30;99.90
15341;DHT22;7770;52.158;5.372;2022-12-18T07:09:03;-5.30;99.90
15341;DHT22;7770;52.158;5.372;2022-12-18T07:11:49;-5.30;99.90
15341;DHT22;7770;52.158;5.372;2022-12-18T07:14:35;-5.40;99.90
15341;DHT22;7770;52.158;5.372;2022-12-18T07:17:21;-5.30;99.90
15341;DHT22;7770;52.158;5.372;2022-12-18T07:20:07;-5.40;99.90
15341;DHT22;7770;52.158;5.372;2022-12-18T07:22:54;-5.40;99.90
15341;DHT22;7770;52.158;5.372;2022-12-18T07:25:40;-5.40;99.90
15341;DHT22;7770;52.158;5.372;2022-12-18T07:28:26;-5.50;99.90
15341;DHT22;7770;52.158;5.372;2022-12-18T07:31:20;-5.50;99.90
15341;DHT22;7770;52.158;5.372;2022-12-18T07:34:10;-5.50;99.90
15341;DHT22;7770;52.158;5.372;2022-12-18T07:36:57;-5.50;99.90
15341;DHT22;7770;52.158;5.372;2022-12-18T07:39:43;-5.60;99.90
15341;DHT22;7770;52.158;5.372;2022-12-18T07:42:30;-5.60;99.90
15341;DHT22;7770;52.158;5.372;2022-12-18T07:45:16;-5.60;99.90
15341;DHT22;7770;52.158;5.372;2022-12-18T07:48:02;-5.60;99.90
15341;DHT22;7770;52.158;5.372;2022-12-18T07:50:48;-5.60;99.90
15341;DHT22;7770;52.158;5.372;2022-12-18T07:53:35;-5.60;99.90
15341;DHT22;7770;52.158;5.372;2022-12-18T07:56:21;-5.50;99.90
15341;DHT22;7770;52.158;5.372;2022-12-18T07:59:07;-5.50;99.90
15341;DHT22;7770;52.158;5.372;2022-12-18T08:01:53;-5.50;99.90
15341;DHT22;7770;52.158;5.372;2022-12-18T08:04:39;-5.40;99.90
15341;DHT22;7770;52.158;5.372;2022-12-18T08:07:25;-5.30;99.90
15341;DHT22;7770;52.158;5.372;2022-12-18T08:10:11;-5.30;99.90
15341;DHT22;7770;52.158;5.372;2022-12-18T08:12:57;-5.20;99.90
15341;DHT22;7770;52.158;5.372;2022-12-18T08:15:43;-5.10;99.90
15341;DHT22;7770;52.158;5.372;2022-12-18T08:18:29;-5.10;99.90
15341;DHT22;7770;52.158;5.372;2022-12-18T08:21:26;-5.10;99.90
15341;DHT22;7770;52.158;5.372;2022-12-18T08:24:13;-5.00;99.90
15341;DHT22;7770;52.158;5.372;2022-12-18T08:26:59;-4.90;99.90
15341;DHT22;7770;52.158;5.372;2022-12-18T08:29:46;-4.70;99.90
15341;DHT22;7770;52.158;5.372;2022-12-18T08:32:32;-4.70;99.90
15341;DHT22;7770;52.158;5.372;2022-12-18T08:35:18;-4.60;99.90
15341;DHT22;7770;52.158;5.372;2022-12-18T08:38:04;-4.50;99.90
15341;DHT22;7770;52.158;5.372;2022-12-18T08:41:02;-4.50;99.90
15341;DHT22;7770;52.158;5.372;2022-12-18T08:43:49;-4.50;99.90
15341;DHT22;7770;52.158;5.372;2022-12-18T08:46:54;-4.50;99.90
15341;DHT22;7770;52.158;5.372;2022-12-18T08:49:40;-4.30;99.90
15341;DHT22;7770;52.158;5.372;2022-12-18T08:52:26;-4.30;99.90
15341;DHT22;7770;52.158;5.372;2022-12-18T08:55:13;-4.00;99.90
15341;DHT22;7770;52.158;5.372;2022-12-18T08:57:59;-3.60;99.90
15341;DHT22;7770;52.158;5.372;2022-12-18T09:00:45;-3.20;99.90
15341;DHT22;7770;52.158;5.372;2022-12-18T09:03:31;-2.70;99.90
15341;DHT22;7770;52.158;5.372;2022-12-18T09:06:20;-2.30;99.90
15341;DHT22;7770;52.158;5.372;2022-12-18T09:09:07;-2.00;99.90
15341;DHT22;7770;52.158;5.372;2022-12-18T09:11:54;-2.20;99.90
15341;DHT22;7770;52.158;5.372;2022-12-18T09:14:40;-2.50;99.90
15341;DHT22;7770;52.158;5.372;2022-12-18T09:17:26;-2.90;99.90
15341;DHT22;7770;52.158;5.372;2022-12-18T09:20:12;-3.00;99.90
15341;DHT22;7770;52.158;5.372;2022-12-18T09:22:58;-3.20;99.90
15341;DHT22;7770;52.158;5.372;2022-12-18T09:25:44;-3.20;99.90
15341;DHT22;7770;52.158;5.372;2022-12-18T09:28:30;-3.20;99.90
15341;DHT22;7770;52.158;5.372;2022-12-18T09:31:18;-3.40;99.90
15341;DHT22;7770;52.158;5.372;2022-12-18T09:34:06;-3.40;99.90
15341;DHT22;7770;52.158;5.372;2022-12-18T09:36:52;-3.30;99.90
15341;DHT22;7770;52.158;5.372;2022-12-18T09:39:38;-3.20;99.90
15341;DHT22;7770;52.158;5.372;2022-12-18T09:42:24;-3.10;99.90
15341;DHT22;7770;52.158;5.372;2022-12-18T09:45:13;-3.20;99.90
15341;DHT22;7770;52.158;5.372;2022-12-18T09:48:00;-3.30;99.90
15341;DHT22;7770;52.158;5.372;2022-12-18T09:50:48;-3.10;99.90
15341;DHT22;7770;52.158;5.372;2022-12-18T09:53:37;-3.20;99.90
15341;DHT22;7770;52.158;5.372;2022-12-18T09:56:28;-3.10;99.90
15341;DHT22;7770;52.158;5.372;2022-12-18T09:59:35;-3.10;99.90
15341;DHT22;7770;52.158;5.372;2022-12-18T10:02:24;-3.00;99.90
15341;DHT22;7770;52.158;5.372;2022-12-18T10:05:25;-3.00;99.90
15341;DHT22;7770;52.158;5.372;2022-12-18T10:08:24;-2.90;99.90
15341;DHT22;7770;52.158;5.372;2022-12-18T10:11:55;-2.80;99.90
15341;DHT22;7770;52.158;5.372;2022-12-18T10:15:01;-2.80;99.90
15341;DHT22;7770;52.158;5.372;2022-12-18T10:21:28;-2.60;99.90
15341;DHT22;7770;52.158;5.372;2022-12-18T10:27:26;-2.50;99.90
15341;DHT22;7770;52.158;5.372;2022-12-18T10:30:16;-2.40;99.90
15341;DHT22;7770;52.158;5.372;2022-12-18T10:33:03;-2.40;99.90
15341;DHT22;7770;52.158;5.372;2022-12-18T10:35:53;-2.30;99.90
15341;DHT22;7770;52.158;5.372;2022-12-18T10:38:40;-2.30;99.90
15341;DHT22;7770;52.158;5.372;2022-12-18T10:41:27;-2.30;99.90
15341;DHT22;7770;52.158;5.372;2022-12-18T10:44:23;-2.20;99.90
15341;DHT22;7770;52.158;5.372;2022-12-18T10:47:18;-2.20;99.90
15341;DHT22;7770;52.158;5.372;2022-12-18T10:50:04;-2.10;99.90
15341;DHT22;7770;52.158;5.372;2022-12-18T10:52:55;-2.10;99.90
15341;DHT22;7770;52.158;5.372;2022-12-18T10:55:46;-2.00;99.90
15341;DHT22;7770;52.158;5.372;2022-12-18T10:58:38;-1.90;99.90
15341;DHT22;7770;52.158;5.372;2022-12-18T11:01:24;-1.90;99.90
15341;DHT22;7770;52.158;5.372;2022-12-18T11:07:08;-1.80;99.90
15341;DHT22;7770;52.158;5.372;2022-12-18T11:10:00;-1.70;99.90
15341;DHT22;7770;52.158;5.372;2022-12-18T11:12:48;-1.60;99.90
15341;DHT22;7770;52.158;5.372;2022-12-18T11:15:34;-1.50;99.90
15341;DHT22;7770;52.158;5.372;2022-12-18T11:18:30;-1.50;99.90
15341;DHT22;7770;52.158;5.372;2022-12-18T11:21:18;-1.50;99.90
15341;DHT22;7770;52.158;5.372;2022-12-18T11:24:04;-1.50;99.90
15341;DHT22;7770;52.158;5.372;2022-12-18T11:26:50;-1.40;99.90
15341;DHT22;7770;52.158;5.372;2022-12-18T11:29:38;-1.40;99.90
15341;DHT22;7770;52.158;5.372;2022-12-18T11:32:46;-1.30;99.90
15341;DHT22;7770;52.158;5.372;2022-12-18T11:35:55;-1.20;99.90
15341;DHT22;7770;52.158;5.372;2022-12-18T11:38:45;-1.20;99.90
15341;DHT22;7770;52.158;5.372;2022-12-18T11:41:34;-1.10;99.90
15341;DHT22;7770;52.158;5.372;2022-12-18T11:48:14;-1.10;99.90
15341;DHT22;7770;52.158;5.372;2022-12-18T11:51:08;-1.00;99.90
15341;DHT22;7770;52.158;5.372;2022-12-18T11:53:57;-1.00;99.90
15341;DHT22;7770;52.158;5.372;2022-12-18T11:57:03;-1.00;99.90
15341;DHT22;7770;52.158;5.372;2022-12-18T12:03:27;-1.00;99.90
15341;DHT22;7770;52.158;5.372;2022-12-18T12:16:32;-0.90;99.90
15341;DHT22;7770;52.158;5.372;2022-12-18T12:22:41;-0.90;99.90
15341;DHT22;7770;52.158;5.372;2022-12-18T12:25:49;-0.80;99.90
15341;DHT22;7770;52.158;5.372;2022-12-18T12:32:55;-0.70;99.90
15341;DHT22;7770;52.158;5.372;2022-12-18T12:39:11;-0.70;99.90
15341;DHT22;7770;52.158;5.372;2022-12-18T12:42:05;-0.60;99.90
15341;DHT22;7770;52.158;5.372;2022-12-18T12:45:23;-0.60;99.90
15341;DHT22;7770;52.158;5.372;2022-12-18T12:48:22;-0.60;99.90
15341;DHT22;7770;52.158;5.372;2022-12-18T12:51:30;-0.60;99.90
15341;DHT22;7770;52.158;5.372;2022-12-18T12:54:22;-0.60;99.90
15341;DHT22;7770;52.158;5.372;2022-12-18T12:57:11;-0.60;99.90
15341;DHT22;7770;52.158;5.372;2022-12-18T13:03:15;-0.50;99.90
15341;DHT22;7770;52.158;5.372;2022-12-18T13:06:29;-0.50;99.90
15341;DHT22;7770;52.158;5.372;2022-12-18T13:09:24;-0.40;99.90
15341;DHT22;7770;52.158;5.372;2022-12-18T13:12:11;-0.40;99.90
15341;DHT22;7770;52.158;5.372;2022-12-18T13:15:43;-0.40;99.90
15341;DHT22;7770;52.158;5.372;2022-12-18T13:18:56;-0.30;99.90
15341;DHT22;7770;52.158;5.372;2022-12-18T13:21:53;-0.30;99.90
15341;DHT22;7770;52.158;5.372;2022-12-18T13:24:40;-0.20;99.90
15341;DHT22;7770;52.158;5.372;2022-12-18T13:36:28;-0.30;99.90
15341;DHT22;7770;52.158;5.372;2022-12-18T13:44:50;-0.20;99.90
15341;DHT22;7770;52.158;5.372;2022-12-18T13:47:37;-0.20;99.90
15341;DHT22;7770;52.158;5.372;2022-12-18T13:50:25;-0.30;99.90
15341;DHT22;7770;52.158;5.372;2022-12-18T13:53:24;-0.20;99.90
15341;DHT22;7770;52.158;5.372;2022-12-18T13:56:17;-0.20;99.90
15341;DHT22;7770;52.158;5.372;2022-12-18T14:02:14;-0.20;99.90
15341;DHT22;7770;52.158;5.372;2022-12-18T14:05:02;-0.20;99.90
15341;DHT22;7770;52.158;5.372;2022-12-18T14:07:48;-0.20;99.90
15341;DHT22;7770;52.158;5.372;2022-12-18T14:10:35;-0.20;99.90
15341;DHT22;7770;52.158;5.372;2022-12-18T14:13:36;-0.20;99.90
15341;DHT22;7770;52.158;5.372;2022-12-18T14:16:23;-0.10;99.90
15341;DHT22;7770;52.158;5.372;2022-12-18T14:19:17;-0.20;99.90
15341;DHT22;7770;52.158;5.372;2022-12-18T14:22:03;-0.10;99.90
15341;DHT22;7770;52.158;5.372;2022-12-18T14:25:15;-0.10;99.90
15341;DHT22;7770;52.158;5.372;2022-12-18T14:30:54;-0.10;99.90
15341;DHT22;7770;52.158;5.372;2022-12-18T14:33:40;-0.10;99.90
15341;DHT22;7770;52.158;5.372;2022-12-18T14:36:28;-0.10;99.90
15341;DHT22;7770;52.158;5.372;2022-12-18T14:39:17;-0.10;99.90
15341;DHT22;7770;52.158;5.372;2022-12-18T14:42:03;-0.10;99.90
15341;DHT22;7770;52.158;5.372;2022-12-18T14:44:49;-0.10;99.90
15341;DHT22;7770;52.158;5.372;2022-12-18T14:47:35;-0.10;99.90
15341;DHT22;7770;52.158;5.372;2022-12-18T14:50:21;-0.10;99.90
15341;DHT22;7770;52.158;5.372;2022-12-18T14:53:20;-0.10;99.90
15341;DHT22;7770;52.158;5.372;2022-12-18T14:56:21;-0.10;99.90
15341;DHT22;7770;52.158;5.372;2022-12-18T14:59:16;0.00;99.90
15341;DHT22;7770;52.158;5.372;2022-12-18T15:02:26;-0.10;99.90
15341;DHT22;7770;52.158;5.372;2022-12-18T15:08:00;-0.10;99.90
15341;DHT22;7770;52.158;5.372;2022-12-18T15:10:47;0.00;99.90
15341;DHT22;7770;52.158;5.372;2022-12-18T15:13:33;-0.10;99.90
15341;DHT22;7770;52.158;5.372;2022-12-18T15:16:20;-0.10;99.90
15341;DHT22;7770;52.158;5.372;2022-12-18T15:19:07;-0.10;99.90
15341;DHT22;7770;52.158;5.372;2022-12-18T15:21:53;0.00;99.90
15341;DHT22;7770;52.158;5.372;2022-12-18T15:24:39;0.00;99.90
15341;DHT22;7770;52.158;5.372;2022-12-18T15:30:25;0.00;99.90
15341;DHT22;7770;52.158;5.372;2022-12-18T15:33:24;0.00;99.90
15341;DHT22;7770;52.158;5.372;2022-12-18T15:36:14;0.00;99.90
15341;DHT22;7770;52.158;5.372;2022-12-18T15:39:01;0.00;99.90
15341;DHT22;7770;52.158;5.372;2022-12-18T15:41:48;0.00;99.90
15341;DHT22;7770;52.158;5.372;2022-12-18T15:44:52;0.00;99.90
15341;DHT22;7770;52.158;5.372;2022-12-18T15:47:39;0.00;99.90
15341;DHT22;7770;52.158;5.372;2022-12-18T15:50:25;0.00;99.90
15341;DHT22;7770;52.158;5.372;2022-12-18T15:53:11;0.00;99.90
15341;DHT22;7770;52.158;5.372;2022-12-18T15:55:58;0.00;99.90
15341;DHT22;7770;52.158;5.372;2022-12-18T15:59:08;0.00;99.90
15341;DHT22;7770;52.158;5.372;2022-12-18T16:01:56;0.00;99.90
15341;DHT22;7770;52.158;5.372;2022-12-18T16:04:43;0.00;99.90
15341;DHT22;7770;52.158;5.372;2022-12-18T16:07:29;0.00;99.90
15341;DHT22;7770;52.158;5.372;2022-12-18T16:10:15;0.00;99.90
15341;DHT22;7770;52.158;5.372;2022-12-18T16:13:01;0.00;99.90
15341;DHT22;7770;52.158;5.372;2022-12-18T16:15:47;0.00;99.90
15341;DHT22;7770;52.158;5.372;2022-12-18T16:18:33;0.00;99.90
15341;DHT22;7770;52.158;5.372;2022-12-18T16:21:19;0.00;99.90
15341;DHT22;7770;52.158;5.372;2022-12-18T16:24:12;0.00;99.90
15341;DHT22;7770;52.158;5.372;2022-12-18T16:27:00;0.00;99.90
15341;DHT22;7770;52.158;5.372;2022-12-18T16:29:46;0.00;99.90
15341;DHT22;7770;52.158;5.372;2022-12-18T16:32:33;0.00;99.90
15341;DHT22;7770;52.158;5.372;2022-12-18T16:35:19;0.00;99.90
15341;DHT22;7770;52.158;5.372;2022-12-18T16:38:05;0.00;99.90
15341;DHT22;7770;52.158;5.372;2022-12-18T16:40:51;0.00;99.90
15341;DHT22;7770;52.158;5.372;2022-12-18T16:43:55;0.00;99.90
15341;DHT22;7770;52.158;5.372;2022-12-18T16:46:41;0.00;99.90
15341;DHT22;7770;52.158;5.372;2022-12-18T16:49:33;0.00;99.90
15341;DHT22;7770;52.158;5.372;2022-12-18T16:52:19;0.10;99.90
15341;DHT22;7770;52.158;5.372;2022-12-18T16:55:06;0.10;99.90
15341;DHT22;7770;52.158;5.372;2022-12-18T16:57:52;0.10;99.90
15341;DHT22;7770;52.158;5.372;2022-12-18T17:00:38;0.10;99.90
15341;DHT22;7770;52.158;5.372;2022-12-18T17:03:25;0.10;99.90
15341;DHT22;7770;52.158;5.372;2022-12-18T17:06:11;0.10;99.90
15341;DHT22;7770;52.158;5.372;2022-12-18T17:08:59;0.10;99.90
15341;DHT22;7770;52.158;5.372;2022-12-18T17:11:45;0.10;99.90
15341;DHT22;7770;52.158;5.372;2022-12-18T17:14:33;0.10;99.90
15341;DHT22;7770;52.158;5.372;2022-12-18T17:17:19;0.10;99.90
15341;DHT22;7770;52.158;5.372;2022-12-18T17:20:05;0.10;99.90
15341;DHT22;7770;52.158;5.372;2022-12-18T17:22:51;0.10;99.90
15341;DHT22;7770;52.158;5.372;2022-12-18T17:25:41;0.10;99.90
15341;DHT22;7770;52.158;5.372;2022-12-18T17:28:27;0.10;99.90
15341;DHT22;7770;52.158;5.372;2022-12-18T17:31:21;0.10;99.90
15341;DHT22;7770;52.158;5.372;2022-12-18T17:34:09;0.10;99.90
15341;DHT22;7770;52.158;5.372;2022-12-18T17:36:56;0.20;99.90
15341;DHT22;7770;52.158;5.372;2022-12-18T17:39:42;0.20;99.90
15341;DHT22;7770;52.158;5.372;2022-12-18T17:42:28;0.20;99.90
15341;DHT22;7770;52.158;5.372;2022-12-18T17:45:14;0.20;99.90
15341;DHT22;7770;52.158;5.372;2022-12-18T17:48:00;0.30;99.90
15341;DHT22;7770;52.158;5.372;2022-12-18T17:50:46;0.20;99.90
15341;DHT22;7770;52.158;5.372;2022-12-18T17:53:32;0.20;99.90
15341;DHT22;7770;52.158;5.372;2022-12-18T17:56:20;0.20;99.90
15341;DHT22;7770;52.158;5.372;2022-12-18T17:59:07;0.30;99.90
15341;DHT22;7770;52.158;5.372;2022-12-18T18:01:53;0.30;99.90
15341;DHT22;7770;52.158;5.372;2022-12-18T18:04:39;0.20;99.90
15341;DHT22;7770;52.158;5.372;2022-12-18T18:07:25;0.20;99.90
15341;DHT22;7770;52.158;5.372;2022-12-18T18:10:11;0.20;99.90
15341;DHT22;7770;52.158;5.372;2022-12-18T18:12:57;0.20;99.90
15341;DHT22;7770;52.158;5.372;2022-12-18T18:16:02;0.20;99.90
15341;DHT22;7770;52.158;5.372;2022-12-18T18:18:48;0.20;99.90
15341;DHT22;7770;52.158;5.372;2022-12-18T18:21:40;0.20;99.90
15341;DHT22;7770;52.158;5.372;2022-12-18T18:24:27;0.30;99.90
15341;DHT22;7770;52.158;5.372;2022-12-18T18:27:13;0.30;99.90
15341;DHT22;7770;52.158;5.372;2022-12-18T18:29:59;0.30;99.90
15341;DHT22;7770;52.158;5.372;2022-12-18T18:32:45;0.30;99.90
15341;DHT22;7770;52.158;5.372;2022-12-18T18:35:31;0.30;99.90
15341;DHT22;7770;52.158;5.372;2022-12-18T18:38:17;0.30;99.90
15341;DHT22;7770;52.158;5.372;2022-12-18T18:41:04;0.30;99.90
15341;DHT22;7770;52.158;5.372;2022-12-18T18:43:55;0.40;99.90
15341;DHT22;7770;52.158;5.372;2022-12-18T18:46:42;0.40;99.90
15341;DHT22;7770;52.158;5.372;2022-12-18T18:49:28;0.40;99.90
15341;DHT22;7770;52.158;5.372;2022-12-18T18:52:14;0.40;99.90
15341;DHT22;7770;52.158;5.372;2022-12-18T18:55:01;0.40;99.90
15341;DHT22;7770;52.158;5.372;2022-12-18T18:57:47;0.40;99.90
15341;DHT22;7770;52.158;5.372;2022-12-18T19:00:33;0.40;99.90
15341;DHT22;7770;52.158;5.372;2022-12-18T19:03:19;0.40;99.90
15341;DHT22;7770;52.158;5.372;2022-12-18T19:06:06;0.50;99.90
15341;DHT22;7770;52.158;5.372;2022-12-18T19:08:55;0.50;99.90
15341;DHT22;7770;52.158;5.372;2022-12-18T19:11:42;0.50;99.90
15341;DHT22;7770;52.158;5.372;2022-12-18T19:14:46;0.50;99.90
15341;DHT22;7770;52.158;5.372;2022-12-18T19:17:32;0.50;99.90
15341;DHT22;7770;52.158;5.372;2022-12-18T19:20:18;0.60;99.90
15341;DHT22;7770;52.158;5.372;2022-12-18T19:23:04;0.60;99.90
15341;DHT22;7770;52.158;5.372;2022-12-18T19:25:51;0.60;99.90
15341;DHT22;7770;52.158;5.372;2022-12-18T19:28:37;0.60;99.90